Time;durP1;ratioP1;P1;durP2;ratioP2;P2;SDS_P1;SDS_P2;PMS_P1;PMS_P2;Temp;Humidity;BMP_temperature;BMP_pressure;BME280_temperature;BME280_humidity;BME280_pressure;Samples;Min_cycle;Max_cycle;Signal;HPM_P1;HPM_P2
2022/12/12 00:00:52;;;;;;;35.85;18.10;;;2.10;99.90;;;;;;5057329;28;20025;-67
2022/12/12 00:03:17;;;;;;;32.75;17.15;;;2.00;99.90;;;;;;5056787;28;20057;-67
2022/12/12 00:05:43;;;;;;;33.78;17.48;;;2.00;99.90;;;;;;5057018;28;20413;-67
2022/12/12 00:08:09;;;;;;;35.38;18.20;;;1.70;99.90;;;;;;5056438;28;20025;-67
2022/12/12 00:10:35;;;;;;;31.27;17.70;;;1.70;99.90;;;;;;5056689;28;20025;-68
2022/12/12 00:13:03;;;;;;;35.30;19.52;;;1.50;99.90;;;;;;5056654;28;20048;-67
2022/12/12 00:15:29;;;;;;;34.35;17.65;;;1.50;99.90;;;;;;5057031;28;20461;-67
2022/12/12 00:17:55;;;;;;;35.40;18.52;;;1.60;99.90;;;;;;5039693;28;20029;-67
2022/12/12 00:20:21;;;;;;;31.27;16.80;;;1.70;99.90;;;;;;5056284;28;20045;-67
2022/12/12 00:22:46;;;;;;;34.10;16.95;;;1.60;99.90;;;;;;5056900;28;20017;-67
2022/12/12 00:25:12;;;;;;;35.60;18.17;;;1.50;99.90;;;;;;5056964;28;20094;-67
2022/12/12 00:27:38;;;;;;;34.65;16.90;;;1.40;99.90;;;;;;5056904;28;20436;-67
2022/12/12 00:30:05;;;;;;;32.65;16.85;;;1.20;99.90;;;;;;5056135;28;20052;-68
2022/12/12 00:32:32;;;;;;;32.67;17.00;;;1.00;99.90;;;;;;5056852;28;20278;-67
2022/12/12 00:34:58;;;;;;;33.08;17.48;;;0.90;99.90;;;;;;5057084;28;20056;-67
2022/12/12 00:37:23;;;;;;;34.53;17.85;;;0.90;99.90;;;;;;5057148;28;20401;-68
2022/12/12 00:39:50;;;;;;;35.80;18.10;;;0.80;99.90;;;;;;5056878;28;20070;-67
2022/12/12 00:42:15;;;;;;;33.22;17.30;;;0.70;99.90;;;;;;5056775;28;20025;-68
2022/12/12 00:44:41;;;;;;;37.35;18.00;;;0.80;99.90;;;;;;5056104;28;20037;-66
2022/12/12 00:47:07;;;;;;;31.17;17.35;;;0.60;99.90;;;;;;5055939;28;20303;-67
2022/12/12 00:49:33;;;;;;;33.25;17.40;;;0.60;99.90;;;;;;5039453;28;20037;-67
2022/12/12 00:51:59;;;;;;;33.53;17.27;;;0.70;99.90;;;;;;5055912;28;20400;-66
2022/12/12 00:54:25;;;;;;;33.13;16.75;;;0.60;99.90;;;;;;5055850;28;20060;-67
2022/12/12 00:56:50;;;;;;;32.33;17.38;;;0.50;99.90;;;;;;5055848;28;20396;-66
2022/12/12 00:59:18;;;;;;;35.40;17.83;;;0.50;99.90;;;;;;5055616;28;20029;-66
2022/12/12 01:01:44;;;;;;;38.08;17.95;;;0.70;99.90;;;;;;5039504;28;20025;-66
2022/12/12 01:04:11;;;;;;;35.22;17.02;;;0.70;99.90;;;;;;5056398;28;20063;-67
2022/12/12 01:06:37;;;;;;;34.67;17.08;;;0.80;99.90;;;;;;5039066;28;20041;-67
2022/12/12 01:09:03;;;;;;;35.85;17.48;;;0.70;99.90;;;;;;5055708;28;20029;-68
2022/12/12 01:11:29;;;;;;;34.42;18.55;;;0.70;99.90;;;;;;5055757;28;20040;-67
2022/12/12 01:13:55;;;;;;;30.20;16.80;;;0.60;99.90;;;;;;5056452;28;20090;-67
2022/12/12 01:16:22;;;;;;;37.97;17.90;;;0.60;99.90;;;;;;5056443;28;20065;-67
2022/12/12 01:18:48;;;;;;;34.95;17.23;;;0.50;99.90;;;;;;5056293;28;20025;-67
2022/12/12 01:21:16;;;;;;;31.60;17.20;;;0.40;99.90;;;;;;5055814;28;20274;-67
2022/12/12 01:23:42;;;;;;;35.75;17.40;;;0.30;99.90;;;;;;5056341;28;20456;-68
2022/12/12 01:26:17;;;;;;;35.03;17.67;;;0.40;99.90;;;;;;5055537;28;20044;-68
2022/12/12 01:28:43;;;;;;;33.58;17.45;;;0.30;99.90;;;;;;5055654;28;20033;-67
2022/12/12 01:31:10;;;;;;;36.72;17.42;;;0.20;99.90;;;;;;5055601;28;20071;-68
2022/12/12 01:33:36;;;;;;;36.83;17.02;;;0.10;99.90;;;;;;5055384;28;20033;-68
2022/12/12 01:36:02;;;;;;;35.20;17.90;;;0.10;99.90;;;;;;5059428;28;20094;-68
2022/12/12 01:38:28;;;;;;;37.05;18.55;;;0.10;99.90;;;;;;5060079;28;20251;-68
2022/12/12 01:40:54;;;;;;;33.03;17.20;;;0.10;99.90;;;;;;5059210;28;20021;-68
2022/12/12 01:43:21;;;;;;;33.85;16.85;;;0.00;99.90;;;;;;5059306;28;20021;-67
2022/12/12 01:45:56;;;;;;;35.47;17.13;;;-0.10;99.90;;;;;;5059119;28;20274;-67
2022/12/12 01:48:39;;;;;;;34.83;17.75;;;-0.10;99.90;;;;;;5059857;28;20033;-67
2022/12/12 01:51:18;;;;;;;34.25;17.35;;;-0.10;99.90;;;;;;5059363;28;20155;-67
2022/12/12 01:53:46;;;;;;;38.05;17.48;;;-0.10;99.90;;;;;;5059168;28;20059;-67
2022/12/12 01:56:16;;;;;;;33.33;16.80;;;0.00;99.90;;;;;;5059758;28;20304;-67
2022/12/12 01:58:44;;;;;;;37.83;17.40;;;0.00;99.90;;;;;;5059500;28;20043;-69
2022/12/12 02:01:11;;;;;;;32.75;17.13;;;0.20;99.90;;;;;;5059633;28;20054;-68
2022/12/12 02:03:38;;;;;;;35.03;17.90;;;0.10;99.90;;;;;;5058762;28;20033;-69
2022/12/12 02:06:07;;;;;;;34.00;17.58;;;0.00;99.90;;;;;;5059478;28;20049;-69
2022/12/12 02:08:34;;;;;;;34.70;17.48;;;0.10;99.90;;;;;;5058721;28;20029;-69
2022/12/12 02:11:00;;;;;;;35.55;17.58;;;0.10;99.90;;;;;;5059368;28;20036;-70
2022/12/12 02:13:29;;;;;;;33.75;16.85;;;0.10;99.90;;;;;;5041937;28;20021;-69
2022/12/12 02:15:55;;;;;;;37.45;17.80;;;0.10;99.90;;;;;;5058567;28;20072;-69
2022/12/12 02:18:35;;;;;;;35.33;17.75;;;0.00;99.90;;;;;;5059142;28;20348;-69
2022/12/12 02:21:18;;;;;;;31.85;17.17;;;-0.10;99.90;;;;;;5059242;28;20089;-69
2022/12/12 02:23:58;;;;;;;37.15;17.23;;;0.00;99.90;;;;;;5041849;28;20029;-69
2022/12/12 02:26:36;;;;;;;37.83;18.40;;;0.00;99.90;;;;;;5059128;28;20269;-69
2022/12/12 02:29:40;;;;;;;34.53;16.70;;;0.00;99.90;;;;;;5058244;28;20040;-69
2022/12/12 02:32:26;;;;;;;32.88;16.92;;;-0.10;99.90;;;;;;5051182;28;20064;-69
2022/12/12 02:35:18;;;;;;;35.00;17.05;;;-0.10;99.90;;;;;;5058167;28;20033;-69
2022/12/12 02:38:12;;;;;;;38.78;18.70;;;-0.20;99.90;;;;;;5059001;28;20040;-69
2022/12/12 02:41:07;;;;;;;34.50;17.75;;;-0.20;99.90;;;;;;5058108;28;20037;-68
2022/12/12 02:43:57;;;;;;;33.53;16.77;;;-0.10;99.90;;;;;;5053532;28;20075;-68
2022/12/12 02:46:31;;;;;;;35.53;17.58;;;-0.20;99.90;;;;;;5056715;28;20029;-68
2022/12/12 02:49:17;;;;;;;31.25;16.63;;;-0.10;99.90;;;;;;5058781;28;20051;-68
2022/12/12 02:51:46;;;;;;;34.75;17.13;;;-0.20;99.90;;;;;;5057902;28;20051;-69
2022/12/12 02:54:15;;;;;;;35.50;16.90;;;-0.20;99.90;;;;;;5058645;28;20075;-69
2022/12/12 02:56:43;;;;;;;33.47;17.05;;;-0.20;99.90;;;;;;5058602;28;20041;-69
2022/12/12 02:59:39;;;;;;;36.38;17.50;;;-0.20;99.90;;;;;;5058395;28;20032;-69
2022/12/12 03:02:30;;;;;;;34.75;16.58;;;-0.20;99.90;;;;;;5058544;28;20040;-69
2022/12/12 03:08:41;;;;;;;32.90;16.75;;;-0.30;99.90;;;;;;5058488;28;20355;-69
2022/12/12 03:11:11;;;;;;;34.45;16.58;;;-0.30;99.90;;;;;;5040887;28;20035;-69
2022/12/12 03:13:43;;;;;;;35.63;17.33;;;-0.30;99.90;;;;;;5058071;28;20471;-68
2022/12/12 03:16:29;;;;;;;35.15;18.70;;;-0.30;99.90;;;;;;5058133;28;20082;-68
2022/12/12 03:19:11;;;;;;;33.28;16.10;;;-0.30;99.90;;;;;;5058081;28;20274;-68
2022/12/12 03:22:06;;;;;;;34.17;17.42;;;-0.40;99.90;;;;;;5057355;28;20053;-68
2022/12/12 03:24:38;;;;;;;31.67;16.17;;;-0.40;99.90;;;;;;5058136;28;20100;-68
2022/12/12 03:27:30;;;;;;;34.10;16.88;;;-0.40;99.90;;;;;;5057951;28;20021;-68
2022/12/12 03:30:10;;;;;;;34.30;16.98;;;-0.40;99.90;;;;;;5055317;28;20099;-69
2022/12/12 03:33:01;;;;;;;33.33;16.98;;;-0.30;99.90;;;;;;5057283;28;20041;-68
2022/12/12 03:35:42;;;;;;;34.13;17.02;;;-0.30;99.90;;;;;;5058229;28;20032;-68
2022/12/12 03:38:16;;;;;;;33.70;16.27;;;-0.50;99.90;;;;;;5057771;28;20292;-67
2022/12/12 03:41:04;;;;;;;36.65;16.75;;;-0.60;99.90;;;;;;5057819;28;20028;-68
2022/12/12 03:43:34;;;;;;;34.35;17.65;;;-0.50;99.90;;;;;;5057690;28;20393;-68
2022/12/12 03:46:24;;;;;;;33.05;15.93;;;-0.40;99.90;;;;;;5057890;28;20033;-67
2022/12/12 03:49:01;;;;;;;32.67;15.32;;;-0.50;99.90;;;;;;5056914;28;20029;-68
2022/12/12 03:51:29;;;;;;;32.55;15.77;;;-0.50;99.90;;;;;;5057608;28;20033;-67
2022/12/12 03:54:03;;;;;;;34.65;15.85;;;-0.60;99.90;;;;;;5057930;28;20037;-68
2022/12/12 03:56:38;;;;;;;37.33;16.45;;;-0.70;99.90;;;;;;5056655;28;20059;-67
2022/12/12 03:59:24;;;;;;;31.90;16.13;;;-0.80;99.90;;;;;;5056212;28;20029;-67
2022/12/12 04:02:17;;;;;;;31.13;15.00;;;-0.80;99.90;;;;;;5056677;28;20370;-67
2022/12/12 04:05:09;;;;;;;31.02;15.15;;;-0.90;99.90;;;;;;5057892;28;20037;-67
2022/12/12 04:07:43;;;;;;;33.65;15.70;;;-0.90;99.90;;;;;;5056672;28;20135;-67
2022/12/12 04:13:14;;;;;;;31.40;15.60;;;-0.80;99.90;;;;;;5057215;28;20045;-67
2022/12/12 04:16:01;;;;;;;29.83;15.63;;;-0.70;99.90;;;;;;5056469;28;20036;-67
2022/12/12 04:18:30;;;;;;;36.85;16.20;;;-0.70;99.90;;;;;;5056184;28;20036;-68
2022/12/12 04:24:08;;;;;;;33.78;15.93;;;-0.80;99.90;;;;;;5056202;28;20036;-67
2022/12/12 04:27:05;;;;;;;32.35;15.18;;;-0.80;99.90;;;;;;5056241;28;20025;-67
2022/12/12 04:29:35;;;;;;;34.20;16.20;;;-1.00;99.90;;;;;;5056992;28;20036;-66
2022/12/12 04:32:23;;;;;;;30.55;15.32;;;-1.10;99.90;;;;;;5057008;28;20120;-66
2022/12/12 04:35:01;;;;;;;31.00;16.10;;;-1.10;99.90;;;;;;5056924;28;20029;-67
2022/12/12 04:37:49;;;;;;;33.40;16.13;;;-1.00;99.90;;;;;;5056786;28;20128;-66
2022/12/12 04:40:38;;;;;;;31.17;15.30;;;-1.00;99.90;;;;;;5056314;28;20270;-66
2022/12/12 04:43:13;;;;;;;33.45;15.68;;;-0.90;99.90;;;;;;5057052;28;20108;-68
2022/12/12 04:45:48;;;;;;;29.75;15.65;;;-1.00;99.90;;;;;;5056212;28;20277;-67
2022/12/12 04:48:19;;;;;;;30.25;15.95;;;-1.00;99.90;;;;;;5056874;28;20029;-67
2022/12/12 04:50:48;;;;;;;29.65;14.45;;;-1.00;99.90;;;;;;5056722;28;20327;-67
2022/12/12 04:53:18;;;;;;;28.15;14.68;;;-1.10;99.90;;;;;;5055975;28;20020;-67
2022/12/12 04:55:49;;;;;;;34.40;15.98;;;-1.00;99.90;;;;;;5055950;28;20087;-67
2022/12/12 04:58:16;;;;;;;30.20;15.50;;;-1.00;99.90;;;;;;5056713;28;20029;-67
2022/12/12 05:01:07;;;;;;;29.05;14.95;;;-1.10;99.90;;;;;;5039766;28;20321;-67
2022/12/12 05:04:00;;;;;;;29.45;14.88;;;-1.20;99.90;;;;;;5056478;28;20032;-67
2022/12/12 05:06:32;;;;;;;34.97;15.95;;;-1.10;99.90;;;;;;5056367;28;20062;-67
2022/12/12 05:08:59;;;;;;;32.20;15.13;;;-1.20;99.90;;;;;;5056612;28;20033;-70
2022/12/12 05:11:25;;;;;;;33.58;15.57;;;-1.10;99.90;;;;;;5060417;28;20063;-68
2022/12/12 05:13:51;;;;;;;32.60;15.02;;;-1.00;99.90;;;;;;5059835;28;20083;-68
2022/12/12 05:16:20;;;;;;;31.88;15.32;;;-1.00;99.90;;;;;;5059685;28;20064;-68
2022/12/12 05:18:46;;;;;;;31.75;15.48;;;-1.10;99.90;;;;;;5060423;28;20044;-68
2022/12/12 05:21:12;;;;;;;29.88;15.23;;;-1.20;99.90;;;;;;5059605;28;20032;-68
2022/12/12 05:23:38;;;;;;;31.38;14.80;;;-1.40;99.90;;;;;;5042901;28;20033;-67
2022/12/12 05:26:09;;;;;;;31.67;15.05;;;-1.60;99.90;;;;;;5059342;28;20417;-68
2022/12/12 05:28:35;;;;;;;30.73;14.68;;;-1.60;99.90;;;;;;5059403;28;20159;-67
2022/12/12 05:31:03;;;;;;;28.45;14.98;;;-1.60;99.90;;;;;;5059427;28;20032;-67
2022/12/12 05:33:28;;;;;;;29.05;14.20;;;-1.70;99.90;;;;;;5059989;28;20041;-68
2022/12/12 05:35:54;;;;;;;26.70;13.95;;;-1.70;99.90;;;;;;5042673;28;20363;-68
2022/12/12 05:38:20;;;;;;;32.47;14.73;;;-1.60;99.90;;;;;;5026254;28;20028;-67
2022/12/12 05:40:46;;;;;;;27.40;14.27;;;-1.50;99.90;;;;;;5042568;28;20108;-67
2022/12/12 05:43:11;;;;;;;30.13;15.00;;;-1.40;99.90;;;;;;5059974;28;20029;-67
2022/12/12 05:45:37;;;;;;;30.60;14.75;;;-1.40;99.90;;;;;;5059332;28;20170;-67
2022/12/12 05:48:03;;;;;;;30.10;15.07;;;-1.30;99.90;;;;;;5060150;28;20321;-67
2022/12/12 05:50:29;;;;;;;32.60;15.13;;;-1.40;99.90;;;;;;5060164;28;20044;-67
2022/12/12 05:52:55;;;;;;;28.02;14.40;;;-1.40;99.90;;;;;;5059016;28;20033;-67
2022/12/12 05:55:20;;;;;;;28.77;14.63;;;-1.60;99.90;;;;;;5058911;28;20037;-67
2022/12/12 05:57:46;;;;;;;28.27;13.73;;;-1.60;99.90;;;;;;5058923;28;20029;-67
2022/12/12 06:00:12;;;;;;;31.70;14.68;;;-1.60;99.90;;;;;;5059479;28;20033;-67
2022/12/12 06:02:38;;;;;;;28.10;14.73;;;-1.60;99.90;;;;;;5059339;28;20051;-67
2022/12/12 06:05:04;;;;;;;29.30;13.73;;;-1.60;99.90;;;;;;5058653;28;20029;-69
2022/12/12 06:07:30;;;;;;;29.90;15.13;;;-1.50;99.90;;;;;;5059284;28;20045;-67
2022/12/12 06:09:56;;;;;;;29.63;14.18;;;-1.50;99.90;;;;;;5059417;28;20425;-69
2022/12/12 06:12:22;;;;;;;30.08;14.30;;;-1.50;99.90;;;;;;5058571;28;20076;-68
2022/12/12 06:14:48;;;;;;;29.38;14.90;;;-1.50;99.90;;;;;;5058605;28;20037;-66
2022/12/12 06:17:14;;;;;;;27.70;13.93;;;-1.40;99.90;;;;;;5041923;28;20375;-67
2022/12/12 06:19:42;;;;;;;32.17;17.20;;;-1.40;99.90;;;;;;5042447;28;20040;-67
2022/12/12 06:22:08;;;;;;;33.65;17.02;;;-1.50;99.90;;;;;;5025279;28;20293;-66
2022/12/12 06:24:34;;;;;;;31.92;15.93;;;-1.70;99.90;;;;;;5058477;28;20048;-65
2022/12/12 06:27:01;;;;;;;29.33;14.88;;;-1.80;99.90;;;;;;5058447;28;20052;-66
2022/12/12 06:29:26;;;;;;;27.67;13.80;;;-1.80;99.90;;;;;;5059155;28;20106;-67
2022/12/12 06:31:52;;;;;;;26.90;13.70;;;-1.70;99.90;;;;;;5059088;28;20032;-66
2022/12/12 06:34:18;;;;;;;30.25;14.93;;;-1.70;99.90;;;;;;5041735;28;20388;-66
2022/12/12 06:36:44;;;;;;;29.17;14.18;;;-1.80;99.90;;;;;;5058127;28;20060;-66
2022/12/12 06:39:10;;;;;;;29.48;14.23;;;-1.90;99.90;;;;;;5058186;28;20041;-66
2022/12/12 06:41:36;;;;;;;27.40;12.93;;;-1.80;99.90;;;;;;5059221;28;20033;-66
2022/12/12 06:44:02;;;;;;;28.98;14.32;;;-1.80;99.90;;;;;;5057997;28;20091;-66
2022/12/12 06:46:29;;;;;;;27.60;14.07;;;-1.70;99.90;;;;;;5057862;28;20036;-65
2022/12/12 06:48:56;;;;;;;28.30;14.05;;;-1.70;99.90;;;;;;5058837;28;20025;-66
2022/12/12 06:51:24;;;;;;;30.50;14.25;;;-1.80;99.90;;;;;;5058569;28;20029;-66
2022/12/12 06:53:50;;;;;;;30.08;14.60;;;-1.80;99.90;;;;;;5057743;28;20028;-67
2022/12/12 06:56:19;;;;;;;28.17;13.52;;;-1.80;99.90;;;;;;5058560;28;20040;-67
2022/12/12 06:58:45;;;;;;;29.42;14.25;;;-1.70;99.90;;;;;;5057650;28;20044;-66
2022/12/12 07:01:13;;;;;;;30.75;14.10;;;-1.80;99.90;;;;;;5057589;28;20025;-66
2022/12/12 07:03:38;;;;;;;30.58;13.90;;;-2.00;99.90;;;;;;5058394;28;20035;-66
2022/12/12 07:06:05;;;;;;;27.58;13.75;;;-2.10;99.90;;;;;;5057375;28;20312;-66
2022/12/12 07:08:32;;;;;;;30.13;13.88;;;-2.20;99.90;;;;;;5058271;28;20040;-66
2022/12/12 07:11:04;;;;;;;29.95;14.38;;;-2.20;99.90;;;;;;5058253;28;20178;-66
2022/12/12 07:13:30;;;;;;;26.95;14.05;;;-2.20;99.90;;;;;;5058120;28;20025;-66
2022/12/12 07:15:56;;;;;;;29.50;14.57;;;-2.20;99.90;;;;;;5058056;28;20035;-68
2022/12/12 07:18:22;;;;;;;26.70;13.93;;;-2.10;99.90;;;;;;5057189;28;20033;-67
2022/12/12 07:20:47;;;;;;;27.15;13.88;;;-2.10;99.90;;;;;;5058056;28;20033;-68
2022/12/12 07:23:13;;;;;;;30.88;14.85;;;-2.20;99.90;;;;;;5057187;28;20040;-68
2022/12/12 07:25:41;;;;;;;27.63;13.50;;;-2.20;99.90;;;;;;5057899;28;20460;-68
2022/12/12 07:28:09;;;;;;;29.73;13.50;;;1.40;99.90;;;;;;5057882;28;20029;-61
2022/12/12 07:30:39;;;;;;;24.52;12.63;;;2.80;99.90;;;;;;5057172;28;20063;-67
2022/12/12 07:33:05;;;;;;;25.60;13.05;;;1.10;99.90;;;;;;5056220;28;20075;-67
2022/12/12 07:35:31;;;;;;;26.10;13.00;;;-0.30;99.90;;;;;;5056848;28;20342;-67
2022/12/12 07:37:58;;;;;;;20.70;11.52;;;-0.90;99.90;;;;;;5057531;28;20115;-68
2022/12/12 07:40:23;;;;;;;24.35;12.80;;;-1.20;99.90;;;;;;5040241;28;20069;-68
2022/12/12 07:42:49;;;;;;;26.23;12.65;;;-1.30;99.90;;;;;;5056693;28;20033;-63
2022/12/12 07:45:15;;;;;;;31.95;13.25;;;-1.20;99.90;;;;;;5056646;28;20074;-63
2022/12/12 07:47:41;;;;;;;31.77;13.20;;;1.20;99.90;;;;;;5057497;28;20029;-64
2022/12/12 07:50:07;;;;;;;22.50;11.73;;;2.90;99.90;;;;;;5056552;28;20029;-68
2022/12/12 07:52:47;;;;;;;21.50;12.20;;;2.10;99.90;;;;;;5056723;28;20037;-68
2022/12/12 07:55:13;;;;;;;22.13;12.05;;;1.10;99.90;;;;;;5025295;28;20040;-68
2022/12/12 07:57:40;;;;;;;23.73;12.20;;;0.40;99.90;;;;;;5039924;28;20045;-68
2022/12/12 08:00:08;;;;;;;21.90;11.32;;;-0.10;99.90;;;;;;5057273;28;20033;-68
2022/12/12 08:02:38;;;;;;;25.02;12.80;;;-0.50;99.90;;;;;;5056799;28;20126;-68
2022/12/12 08:05:04;;;;;;;22.13;12.05;;;-0.70;99.90;;;;;;5057357;28;20029;-68
2022/12/12 08:07:30;;;;;;;23.38;13.15;;;-0.80;99.90;;;;;;5057027;28;20044;-69
2022/12/12 08:09:55;;;;;;;25.98;12.77;;;-1.00;99.90;;;;;;5023525;28;20039;-68
2022/12/12 08:12:21;;;;;;;24.20;13.25;;;-1.10;99.90;;;;;;5057062;28;20030;-68
2022/12/12 08:14:47;;;;;;;27.75;13.50;;;-1.20;99.90;;;;;;5057243;28;20196;-68
2022/12/12 08:17:13;;;;;;;29.42;14.45;;;-1.30;99.90;;;;;;5057058;28;20329;-68
2022/12/12 08:19:39;;;;;;;23.98;13.25;;;-1.60;99.90;;;;;;5023482;28;20061;-69
2022/12/12 08:22:07;;;;;;;26.40;13.27;;;-1.60;99.90;;;;;;5056383;28;20036;-69
2022/12/12 08:24:33;;;;;;;25.85;13.93;;;-1.60;99.90;;;;;;5057124;28;20273;-69
2022/12/12 08:26:59;;;;;;;26.85;13.77;;;-1.60;99.90;;;;;;5056858;28;20456;-68
2022/12/12 08:29:25;;;;;;;26.10;14.50;;;-1.70;99.90;;;;;;5039714;28;20175;-68
2022/12/12 08:31:51;;;;;;;32.95;14.85;;;-1.60;99.90;;;;;;5057056;28;20037;-68
2022/12/12 08:34:16;;;;;;;23.35;13.18;;;-1.80;99.90;;;;;;5056859;28;20029;-68
2022/12/12 08:36:44;;;;;;;26.85;14.35;;;-2.00;99.90;;;;;;5056071;28;20343;-68
2022/12/12 08:39:13;;;;;;;26.85;13.75;;;-2.00;99.90;;;;;;5055997;28;20510;-68
2022/12/12 08:41:41;;;;;;;28.02;13.75;;;-2.10;99.90;;;;;;5056786;28;20128;-68
2022/12/12 08:44:08;;;;;;;30.20;14.23;;;-2.00;99.90;;;;;;5056766;28;20037;-68
2022/12/12 08:46:34;;;;;;;30.35;15.48;;;-1.90;99.90;;;;;;5039325;28;20270;-68
2022/12/12 08:49:00;;;;;;;27.73;14.55;;;-1.80;99.90;;;;;;5039409;28;20094;-68
2022/12/12 08:51:26;;;;;;;35.08;15.43;;;-1.90;99.90;;;;;;5055831;28;20037;-68
2022/12/12 08:53:52;;;;;;;30.45;13.98;;;-1.70;99.90;;;;;;5039505;28;20033;-68
2022/12/12 08:56:20;;;;;;;28.42;14.60;;;-1.60;99.90;;;;;;5039984;28;20036;-68
2022/12/12 08:58:47;;;;;;;29.58;14.70;;;-1.50;99.90;;;;;;5039418;28;20079;-69
2022/12/12 09:01:16;;;;;;;31.02;15.25;;;-1.30;99.90;;;;;;5039379;28;20116;-68
2022/12/12 09:03:42;;;;;;;31.50;14.35;;;-1.10;99.90;;;;;;5056593;28;20029;-68
2022/12/12 09:06:09;;;;;;;29.13;15.48;;;-1.10;99.90;;;;;;5055829;28;20045;-67
2022/12/12 09:08:36;;;;;;;33.92;15.40;;;-1.10;99.90;;;;;;5056505;28;20103;-68
2022/12/12 09:11:02;;;;;;;33.63;16.17;;;-1.00;99.90;;;;;;5056249;28;20025;-67
2022/12/12 09:13:29;;;;;;;32.28;15.55;;;-1.10;99.90;;;;;;5055910;28;20321;-68
2022/12/12 09:15:55;;;;;;;31.83;15.05;;;-1.20;99.90;;;;;;5055737;28;20036;-67
2022/12/12 09:18:22;;;;;;;31.23;14.73;;;-1.30;99.90;;;;;;5056421;28;20033;-67
2022/12/12 09:20:53;;;;;;;28.77;15.05;;;-1.60;99.90;;;;;;5056577;28;20029;-69
2022/12/12 09:23:20;;;;;;;31.67;15.93;;;-1.50;99.90;;;;;;5055766;28;20103;-69
2022/12/12 09:25:46;;;;;;;29.10;15.82;;;-1.40;99.90;;;;;;5039128;28;20312;-67
2022/12/12 09:28:14;;;;;;;30.20;16.05;;;-1.30;99.90;;;;;;5056307;28;20037;-67
2022/12/12 09:30:41;;;;;;;29.17;14.73;;;-1.20;99.90;;;;;;5022787;28;20090;-67
2022/12/12 09:33:07;;;;;;;31.40;15.20;;;-1.10;99.90;;;;;;5056243;28;20028;-67
2022/12/12 09:35:33;;;;;;;30.58;15.32;;;-1.00;99.90;;;;;;5056366;28;20024;-67
2022/12/12 09:37:59;;;;;;;32.45;16.17;;;-1.00;99.90;;;;;;5055402;28;20080;-67
2022/12/12 09:40:47;;;;;;;29.48;15.43;;;-1.00;99.90;;;;;;5055976;28;20270;-67
2022/12/12 09:43:18;;;;;;;31.83;15.93;;;-1.00;99.90;;;;;;5055973;28;20021;-68
2022/12/12 09:45:45;;;;;;;28.30;15.32;;;-0.60;99.90;;;;;;5055304;28;20326;-69
2022/12/12 09:48:22;;;;;;;27.02;13.75;;;-0.20;99.90;;;;;;5056156;28;20013;-70
2022/12/12 09:50:48;;;;;;;22.48;12.93;;;0.50;99.90;;;;;;5055509;28;20297;-69
2022/12/12 09:53:18;;;;;;;26.90;13.30;;;0.60;99.90;;;;;;5055935;28;20033;-69
2022/12/12 09:56:06;;;;;;;25.85;13.45;;;1.00;99.90;;;;;;5056206;28;20048;-70
2022/12/12 09:58:44;;;;;;;21.45;12.25;;;1.90;99.90;;;;;;5059573;28;20078;-69
2022/12/12 10:01:23;;;;;;;24.40;12.93;;;2.60;99.90;;;;;;5042312;28;20029;-67
2022/12/12 10:04:16;;;;;;;22.42;13.25;;;3.10;99.90;;;;;;5059690;28;20394;-69
2022/12/12 10:07:02;;;;;;;;;;;3.60;99.90;;;;;;5059804;28;20048;-69
2022/12/12 10:09:56;;;;;;;21.23;11.88;;;4.20;99.90;;;;;;5058200;28;19915;-69
2022/12/12 10:12:24;;;;;;;22.33;12.68;;;4.20;99.90;;;;;;5058553;28;20025;-70
2022/12/12 10:15:22;;;;;;;20.45;12.10;;;4.50;99.90;;;;;;5058517;28;20025;-69
2022/12/12 10:17:48;;;;;;;19.83;11.73;;;4.40;99.90;;;;;;5050038;28;20068;-70
2022/12/12 10:20:17;;;;;;;22.02;13.05;;;4.00;99.90;;;;;;5059067;28;20037;-69
2022/12/12 10:22:58;;;;;;;19.83;12.27;;;4.70;99.90;;;;;;5058388;28;20041;-70
2022/12/12 10:25:43;;;;;;;21.48;13.25;;;4.70;99.90;;;;;;5058459;28;20033;-69
2022/12/12 10:28:12;;;;;;;24.55;12.70;;;5.50;99.90;;;;;;5041790;28;20021;-69
2022/12/12 10:30:56;;;;;;;19.98;13.15;;;6.10;99.90;;;;;;5058346;28;20021;-71
2022/12/12 10:33:41;;;;;;;22.42;13.13;;;6.50;99.90;;;;;;5041540;28;20037;-71
2022/12/12 10:36:39;;;;;;;24.38;13.57;;;6.20;99.90;;;;;;5041454;28;20346;-71
2022/12/12 10:39:23;;;;;;;21.08;12.63;;;6.00;99.90;;;;;;5040977;28;20103;-71
2022/12/12 10:42:15;;;;;;;19.08;12.00;;;5.70;99.90;;;;;;5058240;28;20048;-71
2022/12/12 10:44:44;;;;;;;19.05;12.27;;;4.70;99.90;;;;;;5058898;28;20098;-70
2022/12/12 10:47:11;;;;;;;21.67;11.50;;;5.20;99.90;;;;;;5058278;28;20028;-70
2022/12/12 10:49:38;;;;;;;22.20;12.13;;;5.50;99.90;;;;;;5057979;28;20183;-70
2022/12/12 10:52:13;;;;;;;20.27;11.88;;;6.20;99.90;;;;;;5058485;28;20324;-70
2022/12/12 10:54:46;;;;;;;20.88;12.13;;;6.40;99.90;;;;;;5057975;28;20028;-69
2022/12/12 10:57:18;;;;;;;21.33;12.25;;;6.80;99.90;;;;;;5058492;28;20111;-69
2022/12/12 10:59:50;;;;;;;18.23;12.23;;;6.00;99.90;;;;;;5058547;28;20371;-70
2022/12/12 11:02:28;;;;;;;22.17;12.65;;;6.90;99.90;;;;;;5058023;28;20079;-71
2022/12/12 11:05:14;;;;;;;21.50;12.80;;;7.50;99.90;;;;;;5041975;28;20071;-69
2022/12/12 11:07:43;;;;;;;21.40;12.60;;;7.90;99.90;;;;;;5056568;28;20285;-70
2022/12/12 11:10:24;;;;;;;22.88;11.85;;;7.60;99.90;;;;;;5057561;28;20025;-70
2022/12/12 11:12:57;;;;;;;22.48;12.30;;;6.70;99.90;;;;;;5058282;28;20072;-69
2022/12/12 11:15:51;;;;;;;19.10;12.18;;;6.40;99.90;;;;;;5058483;28;20063;-70
2022/12/12 11:18:20;;;;;;;20.70;13.38;;;6.20;99.90;;;;;;5056968;28;20052;-70
2022/12/12 11:20:59;;;;;;;20.42;13.02;;;6.00;99.90;;;;;;5057271;28;20342;-70
2022/12/12 11:23:27;;;;;;;23.15;13.40;;;5.20;99.90;;;;;;5057249;28;20060;-69
2022/12/12 11:25:58;;;;;;;23.92;12.98;;;4.60;99.90;;;;;;5057263;28;20063;-69
2022/12/12 11:28:28;;;;;;;24.17;13.60;;;4.40;99.90;;;;;;5057951;28;20029;-71
2022/12/12 11:30:55;;;;;;;24.55;12.80;;;4.00;99.90;;;;;;5057279;28;20033;-70
2022/12/12 11:33:34;;;;;;;23.25;12.07;;;3.90;99.90;;;;;;5057163;28;20092;-70
2022/12/12 11:36:05;;;;;;;21.92;12.30;;;3.70;99.90;;;;;;5058506;28;20025;-70
2022/12/12 11:38:38;;;;;;;22.35;12.27;;;3.20;99.90;;;;;;5057083;28;20056;-70
2022/12/12 11:41:09;;;;;;;23.73;13.23;;;3.20;99.90;;;;;;5057728;28;20108;-69
2022/12/12 11:43:43;;;;;;;23.92;12.38;;;3.30;99.90;;;;;;5057721;28;20025;-69
2022/12/12 11:46:22;;;;;;;21.33;12.45;;;3.20;99.90;;;;;;5057851;28;20033;-69
2022/12/12 11:48:51;;;;;;;23.85;12.20;;;3.30;99.90;;;;;;5057607;28;20320;-72
2022/12/12 11:51:40;;;;;;;21.73;11.82;;;3.00;99.90;;;;;;5040682;28;20071;-69
2022/12/12 11:54:13;;;;;;;20.00;11.07;;;2.60;99.90;;;;;;5057032;28;20025;-70
2022/12/12 11:56:42;;;;;;;21.30;12.27;;;2.40;99.90;;;;;;5057551;28;20076;-70
2022/12/12 11:59:45;;;;;;;20.27;11.65;;;2.50;99.90;;;;;;5057357;28;20064;-70
2022/12/12 12:02:40;;;;;;;19.92;11.50;;;2.60;99.90;;;;;;5057343;28;20025;-70
2022/12/12 12:05:21;;;;;;;22.05;11.77;;;2.60;99.90;;;;;;5057367;28;20025;-70
2022/12/12 12:08:05;;;;;;;24.55;12.02;;;2.40;99.90;;;;;;5039883;28;20051;-69
2022/12/12 12:11:09;;;;;;;25.08;12.30;;;2.50;99.90;;;;;;5057288;28;20021;-70
2022/12/12 12:14:11;;;;;;;22.50;12.35;;;2.70;99.90;;;;;;5056398;28;20082;-70
2022/12/12 12:17:07;;;;;;;21.48;11.82;;;2.80;99.90;;;;;;5057627;28;20381;-69
2022/12/12 12:19:44;;;;;;;20.52;10.93;;;3.00;99.90;;;;;;5057091;28;20037;-69
2022/12/12 12:22:39;;;;;;;21.02;11.05;;;2.90;99.90;;;;;;5057335;28;20274;-69
2022/12/12 12:25:21;;;;;;;21.25;11.50;;;2.70;99.90;;;;;;5056960;28;20021;-70
2022/12/12 12:27:50;;;;;;;21.98;11.18;;;2.70;99.90;;;;;;5056218;28;20095;-70
2022/12/12 12:30:33;;;;;;;19.80;11.02;;;2.70;99.90;;;;;;5056893;28;20029;-70
2022/12/12 12:33:08;;;;;;;19.48;10.82;;;2.60;99.90;;;;;;5056028;28;20037;-70
2022/12/12 12:36:02;;;;;;;23.95;11.95;;;2.50;99.90;;;;;;5056781;28;20024;-70
2022/12/12 12:38:46;;;;;;;22.40;11.02;;;2.60;99.90;;;;;;5055910;28;20357;-70
2022/12/12 12:41:30;;;;;;;20.83;11.07;;;2.80;99.90;;;;;;5055933;28;20033;-70
2022/12/12 12:44:26;;;;;;;19.15;11.52;;;2.90;99.90;;;;;;5056086;28;20036;-69
2022/12/12 12:47:21;;;;;;;21.10;11.65;;;3.00;99.90;;;;;;5057292;28;20108;-69
2022/12/12 12:50:00;;;;;;;20.75;11.15;;;3.00;99.90;;;;;;5050578;28;20056;-69
2022/12/12 12:52:39;;;;;;;20.73;11.52;;;2.90;99.90;;;;;;5056059;28;20082;-68
2022/12/12 12:55:15;;;;;;;18.65;11.27;;;3.00;99.90;;;;;;5056757;28;20095;-69
2022/12/12 12:57:44;;;;;;;18.20;11.02;;;3.00;99.90;;;;;;5055918;28;20064;-68
2022/12/12 13:00:17;;;;;;;21.15;11.70;;;2.90;99.90;;;;;;5056644;28;20029;-69
2022/12/12 13:03:02;;;;;;;20.80;11.15;;;2.90;99.90;;;;;;5056910;28;20112;-69
2022/12/12 13:05:46;;;;;;;21.05;11.32;;;3.00;99.90;;;;;;5055830;28;20147;-69
2022/12/12 13:08:49;;;;;;;18.40;10.75;;;3.00;99.90;;;;;;5055733;28;20029;-69